Time;durP1;ratioP1;P1;durP2;ratioP2;P2;SDS_P1;SDS_P2;PMS_P1;PMS_P2;Temp;Humidity;BMP_temperature;BMP_pressure;BME280_temperature;BME280_humidity;BME280_pressure;Samples;Min_cycle;Max_cycle;Signal;HPM_P1;HPM_P2
2021/12/12 00:00:03;;;;;;;10.35;4.93;;;;;;;2.58;98.34;100629.69;8227356;28;19977;-81
2021/12/12 00:04:15;;;;;;;16.35;5.60;;;;;;;2.68;97.48;100627.63;8215225;28;20560;-79
2021/12/12 00:08:18;;;;;;;13.38;5.72;;;;;;;2.67;96.91;100636.78;8185066;28;20055;-79
2021/12/12 00:12:23;;;;;;;12.90;5.35;;;;;;;2.69;96.89;100631.19;8205389;28;20142;-79
2021/12/12 00:16:23;;;;;;;17.10;5.47;;;;;;;2.71;97.08;100637.31;8196408;28;20047;-79
2021/12/12 00:20:27;;;;;;;10.30;5.93;;;;;;;2.68;96.52;100652.13;8222972;28;20101;-76
2021/12/12 00:24:28;;;;;;;13.75;6.00;;;;;;;2.67;96.92;100658.56;8194489;28;20050;-80
2021/12/12 00:28:29;;;;;;;11.02;5.57;;;;;;;2.73;97.17;100662.44;8226092;28;20093;-79
2021/12/12 00:32:36;;;;;;;12.77;5.35;;;;;;;2.80;96.86;100665.31;8219627;28;20039;-77
2021/12/12 00:36:40;;;;;;;11.52;5.10;;;;;;;2.84;95.71;100658.50;8215043;28;20070;-79
2021/12/12 00:40:44;;;;;;;12.13;4.78;;;;;;;2.87;95.73;100658.13;8209628;28;20047;-79
2021/12/12 00:44:47;;;;;;;18.83;6.22;;;;;;;2.92;95.72;100661.16;8215866;28;20404;-79
2021/12/12 00:48:49;;;;;;;12.63;5.03;;;;;;;2.97;94.92;100659.63;8215747;28;20047;-78
2021/12/12 00:52:50;;;;;;;9.82;4.95;;;;;;;3.02;95.40;100648.16;8214349;28;20098;-80
2021/12/12 00:56:51;;;;;;;12.32;5.07;;;;;;;2.99;94.14;100643.06;8215730;28;20118;-79
2021/12/12 01:00:55;;;;;;;19.10;6.03;;;;;;;3.02;94.55;100634.53;8214785;28;20051;-78
2021/12/12 01:04:58;;;;;;;13.85;5.40;;;;;;;3.06;93.82;100645.91;8203048;28;20047;-78
2021/12/12 01:09:00;;;;;;;;;;;;;;;3.03;92.91;100651.72;8213080;28;20054;-79
2021/12/12 01:13:04;;;;;;;13.00;4.35;;;;;;;3.04;93.33;100656.16;8219718;28;19973;-79
2021/12/12 01:17:12;;;;;;;11.85;4.72;;;;;;;3.08;94.30;100662.94;8197588;28;20114;-78
2021/12/12 01:21:18;;;;;;;13.25;5.47;;;;;;;3.05;93.66;100664.13;8221687;28;20038;-79
2021/12/12 01:25:27;;;;;;;13.15;5.65;;;;;;;2.97;93.91;100659.63;8217404;28;20042;-78
2021/12/12 01:29:28;;;;;;;14.27;5.85;;;;;;;2.96;94.45;100679.69;8219821;28;20041;-78
2021/12/12 01:33:36;;;;;;;13.00;6.28;;;;;;;2.94;94.82;100676.31;8221106;28;20047;-79
2021/12/12 01:37:39;;;;;;;19.55;6.97;;;;;;;2.86;95.21;100672.78;8214388;28;20385;-78
2021/12/12 01:42:15;;;;;;;11.55;6.10;;;;;;;2.76;95.95;100667.53;8210461;28;20574;-79
2021/12/12 01:46:28;;;;;;;13.88;6.95;;;;;;;2.62;96.41;100674.59;8179359;28;20135;-77
2021/12/12 01:50:33;;;;;;;14.07;6.80;;;;;;;2.51;96.65;100674.97;8204416;28;20046;-77
2021/12/12 01:54:44;;;;;;;20.40;7.13;;;;;;;2.38;97.19;100653.78;8216249;28;20373;-78
2021/12/12 01:58:50;;;;;;;15.13;6.00;;;;;;;2.23;97.51;100663.66;8196755;28;20089;-79
2021/12/12 02:02:51;;;;;;;11.88;5.70;;;;;;;2.14;98.09;100660.16;8215177;28;20047;-79
2021/12/12 02:06:52;;;;;;;17.30;5.95;;;;;;;2.04;97.71;100654.88;8209345;28;20046;-79
2021/12/12 02:10:58;;;;;;;13.48;6.18;;;;;;;1.96;98.00;100670.38;8218846;28;20064;-79
2021/12/12 02:14:59;;;;;;;13.48;6.32;;;;;;;1.90;97.97;100673.78;8223401;28;20065;-79
2021/12/12 02:19:00;;;;;;;10.93;5.60;;;;;;;1.85;98.54;100673.47;8211127;28;20035;-79
2021/12/12 02:23:13;;;;;;;10.38;5.07;;;;;;;1.74;98.67;100666.50;8199145;28;20471;-76
2021/12/12 02:35:54;;;;;;;13.70;5.00;;;;;;;1.62;99.20;100676.03;8206137;28;20492;-78
2021/12/12 02:39:55;;;;;;;13.15;4.90;;;;;;;1.57;99.79;100669.22;8209005;28;20118;-78
2021/12/12 02:44:01;;;;;;;14.85;5.35;;;;;;;1.56;99.51;100663.97;8213464;28;20499;-80
2021/12/12 02:48:05;;;;;;;11.18;4.30;;;;;;;1.53;99.56;100658.88;8215099;28;20078;-80
2021/12/12 02:52:10;;;;;;;15.40;3.90;;;;;;;1.48;99.81;100655.81;8222680;28;20092;-80
2021/12/12 02:56:14;;;;;;;10.50;3.95;;;;;;;1.51;99.26;100655.47;8226787;28;20085;-79
2021/12/12 03:00:19;;;;;;;13.02;4.57;;;;;;;1.52;99.35;100670.78;8221902;28;20043;-80
2021/12/12 03:04:22;;;;;;;11.13;3.80;;;;;;;1.55;99.04;100656.84;8223128;28;20523;-78
2021/12/12 03:08:22;;;;;;;18.55;3.80;;;;;;;1.51;98.67;100664.47;8196894;28;20130;-79
2021/12/12 03:12:31;;;;;;;10.88;3.60;;;;;;;1.52;99.40;100659.91;8226067;28;20050;-79
2021/12/12 03:16:34;;;;;;;10.90;3.55;;;;;;;1.47;99.75;100662.28;8218962;28;20056;-80
2021/12/12 03:20:38;;;;;;;11.25;3.95;;;;;;;1.46;99.60;100664.16;8221547;28;20086;-77
2021/12/12 03:24:39;;;;;;;11.73;3.95;;;;;;;1.46;99.52;100664.16;8218648;28;20066;-77
2021/12/12 03:28:44;;;;;;;8.45;3.10;;;;;;;1.40;99.44;100667.53;8229708;28;20456;-78
2021/12/12 03:32:45;;;;;;;9.05;3.85;;;;;;;1.45;99.85;100675.16;8224249;28;20071;-79
2021/12/12 03:36:46;;;;;;;16.10;4.63;;;;;;;1.44;99.26;100668.06;8196059;28;20086;-78
2021/12/12 03:40:46;;;;;;;9.20;3.63;;;;;;;1.47;99.06;100679.41;8223727;28;20043;-80
2021/12/12 03:44:48;;;;;;;9.43;2.80;;;;;;;1.48;98.35;100689.25;8223185;28;20050;-78
2021/12/12 03:48:49;;;;;;;7.03;4.45;;;;;;;1.50;98.27;100678.22;8219774;28;20039;-78
2021/12/12 03:52:50;;;;;;;7.55;3.00;;;;;;;1.50;97.63;100681.78;8218336;28;20049;-79
2021/12/12 03:56:51;;;;;;;9.20;3.50;;;;;;;1.56;97.09;100689.25;8217321;28;20130;-79
2021/12/12 04:00:59;;;;;;;4.50;2.80;;;;;;;1.54;96.94;100679.59;8217126;28;20058;-77
2021/12/12 04:04:59;;;;;;;9.88;3.22;;;;;;;1.59;96.51;100679.94;8219112;28;20105;-79
2021/12/12 04:09:00;;;;;;;7.80;2.65;;;;;;;1.61;96.42;100675.19;8177732;28;20135;-80
2021/12/12 04:13:01;;;;;;;6.60;2.58;;;;;;;1.68;96.02;100680.78;8218933;28;20047;-77
2021/12/12 04:17:06;;;;;;;9.00;3.22;;;;;;;1.76;95.96;100675.34;8220483;28;20077;-79
2021/12/12 04:21:07;;;;;;;5.78;3.40;;;;;;;1.81;95.96;100684.69;8224995;28;20699;-79
2021/12/12 04:25:08;;;;;;;6.88;2.97;;;;;;;1.89;95.55;100696.56;8196552;28;20102;-78
2021/12/12 04:29:10;;;;;;;5.78;2.40;;;;;;;1.91;94.79;100684.50;8207757;28;20559;-79
2021/12/12 04:33:11;;;;;;;8.50;3.30;;;;;;;1.93;94.45;100684.31;8184816;28;20066;-79
2021/12/12 04:37:13;;;;;;;15.23;3.30;;;;;;;1.97;94.91;100688.41;8212054;28;20043;-78
2021/12/12 04:41:13;;;;;;;6.50;2.65;;;;;;;1.98;94.41;100703.66;8199647;28;20054;-78
2021/12/12 04:45:42;;;;;;;8.52;2.53;;;;;;;1.97;94.19;100699.25;8214138;28;20046;-79
2021/12/12 04:49:57;;;;;;;10.55;3.33;;;;;;;2.01;94.11;100716.91;8218000;28;20047;-78
2021/12/12 04:54:19;;;;;;;8.00;2.88;;;;;;;2.03;93.96;100714.88;8224584;28;20059;-78
2021/12/12 04:59:22;;;;;;;12.48;3.33;;;;;;;2.03;93.83;100720.31;8211196;28;20043;-78
2021/12/12 05:03:31;;;;;;;5.38;2.33;;;;;;;2.13;93.04;100715.53;8118599;28;20663;-78
2021/12/12 05:07:59;;;;;;;7.82;3.05;;;;;;;2.21;92.70;100723.69;8211151;28;20047;-77
2021/12/12 05:12:07;;;;;;;7.28;2.83;;;;;;;2.25;91.67;100725.03;8220099;28;20186;-78
2021/12/12 05:16:12;;;;;;;6.57;2.58;;;;;;;2.31;91.89;100720.75;8219422;28;20047;-78
2021/12/12 05:20:20;;;;;;;7.03;2.92;;;;;;;2.39;92.00;100725.34;8215712;28;20504;-78
2021/12/12 05:24:23;;;;;;;8.75;2.97;;;;;;;2.41;91.15;100726.00;8214713;28;20083;-79
2021/12/12 05:28:29;;;;;;;7.00;2.63;;;;;;;2.44;91.33;100714.78;8208495;28;20054;-78
2021/12/12 05:32:33;;;;;;;6.55;3.05;;;;;;;2.49;90.21;100709.66;8211335;28;20042;-78
2021/12/12 05:36:34;;;;;;;6.43;2.75;;;;;;;2.53;90.63;100712.88;8203776;28;20122;-79
2021/12/12 05:40:39;;;;;;;5.85;2.90;;;;;;;2.61;90.68;100712.84;8208145;28;20051;-78
2021/12/12 05:44:41;;;;;;;12.57;3.10;;;;;;;2.61;90.00;100719.13;8191995;28;20042;-78
2021/12/12 05:48:46;;;;;;;10.27;3.40;;;;;;;2.64;90.08;100726.09;8217901;28;20041;-79
2021/12/12 05:52:47;;;;;;;8.98;3.42;;;;;;;2.61;90.27;100735.47;8230459;28;21411;-79
2021/12/12 05:56:48;;;;;;;11.98;3.33;;;;;;;2.58;90.21;100727.66;8232247;28;20175;-78
2021/12/12 06:00:56;;;;;;;7.35;3.55;;;;;;;2.64;90.65;100726.94;8210658;28;20199;-78
2021/12/12 06:04:58;;;;;;;7.50;3.33;;;;;;;2.62;90.65;100728.19;8202412;28;20066;-78
2021/12/12 06:09:01;;;;;;;6.75;3.50;;;;;;;2.59;90.42;100740.25;8212185;28;20043;-78
2021/12/12 06:13:05;;;;;;;11.05;3.67;;;;;;;2.57;90.44;100736.84;8220994;28;20047;-78
2021/12/12 06:17:08;;;;;;;8.18;4.07;;;;;;;2.59;91.25;100739.38;8218776;28;20110;-79
2021/12/12 06:21:09;;;;;;;5.40;3.03;;;;;;;2.60;91.03;100744.66;8230197;28;20411;-77
2021/12/12 06:25:11;;;;;;;10.88;3.95;;;;;;;2.57;91.72;100734.13;8228726;28;20050;-79
2021/12/12 06:29:11;;;;;;;9.80;4.05;;;;;;;2.49;91.88;100736.88;8224233;28;20077;-79
2021/12/12 06:33:12;;;;;;;10.73;4.00;;;;;;;2.53;92.21;100740.09;8208123;28;20061;-78
2021/12/12 06:37:13;;;;;;;12.18;4.10;;;;;;;2.48;92.01;100743.34;8215497;28;20043;-79
2021/12/12 06:41:14;;;;;;;11.32;4.15;;;;;;;2.49;91.97;100747.75;8207170;28;20121;-76
2021/12/12 06:45:16;;;;;;;9.50;3.53;;;;;;;2.49;91.88;100750.47;8225506;28;20739;-77
2021/12/12 06:49:18;;;;;;;9.18;3.42;;;;;;;2.49;91.85;100753.19;8196598;28;20039;-78
2021/12/12 06:53:22;;;;;;;9.75;4.28;;;;;;;2.53;91.98;100760.00;8217409;28;20098;-78
2021/12/12 06:57:27;;;;;;;8.07;3.05;;;;;;;2.63;91.20;100762.50;8214215;28;20031;-79
2021/12/12 07:01:31;;;;;;;10.63;3.33;;;;;;;2.64;90.65;100754.16;8225169;28;20586;-78
2021/12/12 07:05:31;;;;;;;11.13;3.40;;;;;;;2.69;90.82;100757.22;8218623;28;20507;-78
2021/12/12 07:09:35;;;;;;;10.02;3.70;;;;;;;2.70;90.34;100749.88;8225064;28;20122;-79
2021/12/12 07:13:36;;;;;;;10.00;3.65;;;;;;;2.72;90.79;100759.59;8211633;28;20053;-76
2021/12/12 07:17:37;;;;;;;9.63;4.00;;;;;;;2.74;90.17;100757.53;8214614;28;20043;-79
2021/12/12 07:21:41;;;;;;;10.82;4.43;;;;;;;2.81;89.62;100762.28;8227111;28;20034;-79
2021/12/12 07:25:43;;;;;;;9.05;3.80;;;;;;;2.80;89.23;100768.75;8221164;28;20077;-80
2021/12/12 07:29:44;;;;;;;8.93;4.33;;;;;;;2.89;90.02;100770.44;8214501;28;20047;-77
2021/12/12 07:33:47;;;;;;;11.55;5.40;;;;;;;2.84;89.20;100773.66;8220189;28;20134;-78
2021/12/12 07:37:49;;;;;;;9.93;4.45;;;;;;;2.93;89.13;100774.47;8208876;28;20042;-77
2021/12/12 07:41:51;;;;;;;8.98;4.15;;;;;;;2.99;89.01;100772.94;8222322;28;20051;-80
2021/12/12 07:45:51;;;;;;;12.90;4.73;;;;;;;3.07;88.44;100781.91;8216378;28;20057;-78
2021/12/12 07:49:52;;;;;;;14.05;5.55;;;;;;;3.07;87.70;100779.19;8206442;28;20055;-80
2021/12/12 07:53:57;;;;;;;11.98;4.55;;;;;;;3.10;88.13;100789.72;8226082;28;20086;-78
2021/12/12 07:57:58;;;;;;;9.02;5.30;;;;;;;3.10;88.07;100784.28;8225343;28;20046;-78
2021/12/12 08:01:59;;;;;;;10.05;5.20;;;;;;;3.22;87.80;100786.63;8216302;28;20034;-78
2021/12/12 08:06:02;;;;;;;9.23;4.93;;;;;;;3.18;87.34;100792.41;8202666;28;20065;-79
2021/12/12 08:10:06;;;;;;;7.65;3.90;;;;;;;3.09;86.87;100788.00;8205849;28;20169;-79
2021/12/12 08:14:12;;;;;;;9.95;4.95;;;;;;;3.16;86.95;100790.91;8226935;28;20043;-78
2021/12/12 08:18:15;;;;;;;11.27;4.50;;;;;;;3.12;86.07;100790.41;8223038;28;20047;-78
2021/12/12 08:22:17;;;;;;;10.60;5.07;;;;;;;3.17;87.12;100782.53;8215005;28;20050;-77
2021/12/12 08:26:19;;;;;;;10.65;5.18;;;;;;;3.21;86.66;100788.47;8214371;28;20556;-78
2021/12/12 08:30:20;;;;;;;15.57;5.88;;;;;;;3.24;87.31;100784.53;8212440;28;20110;-78
2021/12/12 08:34:20;;;;;;;11.35;5.15;;;;;;;3.31;87.24;100791.00;8179920;28;20054;-78
2021/12/12 08:38:22;;;;;;;8.52;5.18;;;;;;;3.36;86.92;100783.97;8183980;28;20043;-78
2021/12/12 08:42:26;;;;;;;11.38;5.20;;;;;;;3.53;86.51;100789.31;8191929;28;20189;-77
2021/12/12 08:46:27;;;;;;;12.05;5.22;;;;;;;3.60;85.37;100779.41;8185728;28;20034;-77
2021/12/12 08:50:32;;;;;;;13.02;5.65;;;;;;;3.84;84.69;100775.66;8197854;28;20046;-78
2021/12/12 08:54:36;;;;;;;10.95;4.93;;;;;;;3.94;84.10;100786.31;8192251;28;20062;-79
2021/12/12 08:58:36;;;;;;;11.55;5.50;;;;;;;4.06;83.34;100790.28;8195465;28;20151;-77
2021/12/12 09:02:37;;;;;;;10.55;4.47;;;;;;;3.98;82.85;100796.66;8212886;28;20035;-79
2021/12/12 09:06:56;;;;;;;14.00;5.38;;;;;;;3.97;83.55;100788.66;8209209;28;20046;-79
2021/12/12 09:11:08;;;;;;;10.10;4.82;;;;;;;3.95;83.40;100802.47;8201979;28;20054;-78
2021/12/12 09:15:17;;;;;;;14.73;5.03;;;;;;;3.91;83.05;100806.59;8195663;28;20054;-78
2021/12/12 09:19:25;;;;;;;13.60;5.88;;;;;;;3.91;83.73;100812.06;8215317;28;20139;-80
2021/12/12 09:23:34;;;;;;;10.02;4.90;;;;;;;3.93;83.43;100818.19;8206900;28;20523;-78
2021/12/12 09:27:44;;;;;;;9.57;5.40;;;;;;;3.87;83.60;100829.81;8210914;28;20128;-79
2021/12/12 09:31:58;;;;;;;12.25;5.38;;;;;;;4.04;83.21;100830.53;8213300;28;20046;-79
2021/12/12 09:36:05;;;;;;;12.32;4.90;;;;;;;4.10;83.27;100825.22;8228004;28;20057;-79
2021/12/12 09:40:16;;;;;;;7.97;5.03;;;;;;;4.00;83.45;100824.59;8220292;28;20045;-80
2021/12/12 09:44:44;;;;;;;12.73;5.43;;;;;;;4.00;83.52;100821.88;8217326;28;20055;-79
2021/12/12 09:53:47;;;;;;;11.65;6.25;;;;;;;4.14;83.82;100813.94;8228873;28;20460;-79
2021/12/12 09:58:02;;;;;;;13.18;5.95;;;;;;;4.33;83.52;100795.16;8217765;28;20169;-79
2021/12/12 10:02:15;;;;;;;12.65;5.25;;;;;;;4.12;84.07;100792.28;8210021;28;20050;-79
2021/12/12 10:06:38;;;;;;;12.55;6.22;;;;;;;4.28;84.23;100802.19;8232943;28;20129;-79
2021/12/12 10:11:00;;;;;;;14.33;5.73;;;;;;;4.33;83.71;100797.88;8236377;28;20039;-80
2021/12/12 10:15:09;;;;;;;13.40;6.13;;;;;;;4.40;83.90;100802.59;8228451;28;20049;-80
2021/12/12 10:19:25;;;;;;;11.15;6.35;;;;;;;4.41;83.91;100783.31;8227006;28;20045;-78
2021/12/12 10:23:49;;;;;;;14.38;6.32;;;;;;;4.44;83.17;100776.66;8214934;28;20108;-78
2021/12/12 10:28:26;;;;;;;11.20;5.38;;;;;;;4.39;83.54;100777.19;8235290;28;20085;-78
2021/12/12 10:32:32;;;;;;;8.40;4.82;;;;;;;4.34;83.67;100775.03;8159576;28;20049;-79
2021/12/12 10:36:37;;;;;;;14.27;5.68;;;;;;;4.54;82.46;100786.25;8216717;28;20058;-78
2021/12/12 10:40:57;;;;;;;10.40;5.22;;;;;;;4.75;82.01;100784.66;8204705;28;20051;-78
2021/12/12 10:45:02;;;;;;;11.85;5.57;;;;;;;4.89;81.89;100781.09;8204246;28;20042;-78
2021/12/12 10:49:31;;;;;;;12.20;5.22;;;;;;;4.91;80.88;100770.81;8220050;28;20066;-77
2021/12/12 10:53:40;;;;;;;9.48;5.28;;;;;;;4.90;80.91;100755.47;8222392;28;20122;-79
2021/12/12 10:57:45;;;;;;;14.77;4.85;;;;;;;4.93;81.84;100755.06;8233909;28;20042;-79
2021/12/12 11:01:50;;;;;;;8.73;4.90;;;;;;;4.78;82.18;100751.50;8219845;28;20118;-78
2021/12/12 11:06:05;;;;;;;11.63;5.20;;;;;;;4.82;80.77;100744.66;8218297;28;20041;-78
2021/12/12 11:10:11;;;;;;;12.50;5.25;;;;;;;4.91;81.30;100735.31;8212417;28;20035;-78
2021/12/12 11:14:28;;;;;;;11.50;4.55;;;;;;;5.01;80.41;100730.41;8213982;28;20424;-78
2021/12/12 11:18:37;;;;;;;12.18;4.88;;;;;;;5.06;79.83;100718.91;8225445;28;20095;-78
2021/12/12 11:22:46;;;;;;;10.30;4.90;;;;;;;5.23;79.28;100717.66;8221382;28;20097;-77
2021/12/12 11:26:56;;;;;;;8.30;4.22;;;;;;;5.14;79.35;100723.41;8206066;28;20118;-78
2021/12/12 11:31:03;;;;;;;8.43;4.68;;;;;;;5.31;79.09;100719.41;8231119;28;20055;-78
2021/12/12 11:35:07;;;;;;;7.07;3.92;;;;;;;5.25;78.95;100725.63;8219862;28;20062;-78
2021/12/12 11:39:29;;;;;;;7.95;3.90;;;;;;;5.11;78.83;100721.88;8220795;28;20488;-78
2021/12/12 11:43:48;;;;;;;10.23;4.43;;;;;;;5.20;79.27;100718.00;8233031;28;20042;-79
2021/12/12 11:47:58;;;;;;;7.55;3.60;;;;;;;5.35;78.48;100733.50;8232244;28;20443;-77
2021/12/12 11:52:09;;;;;;;8.57;4.05;;;;;;;5.21;79.01;100744.31;8224411;28;20415;-77
2021/12/12 11:56:19;;;;;;;9.75;3.55;;;;;;;5.27;78.89;100744.59;8214853;28;20038;-78
2021/12/12 12:00:25;;;;;;;9.85;4.70;;;;;;;5.17;79.07;100733.94;8206982;28;20082;-78
2021/12/12 12:04:37;;;;;;;8.82;4.50;;;;;;;5.28;79.21;100736.19;8226410;28;20046;-79
2021/12/12 12:09:01;;;;;;;9.60;4.90;;;;;;;5.14;79.66;100723.41;8229495;28;20042;-78
2021/12/12 12:13:04;;;;;;;10.80;4.75;;;;;;;5.14;78.81;100726.13;8203466;28;20050;-78
2021/12/12 12:17:32;;;;;;;8.50;3.72;;;;;;;5.09;79.70;100715.78;8226851;28;20047;-79
2021/12/12 12:21:52;;;;;;;11.55;3.55;;;;;;;5.12;79.48;100709.94;8218776;28;20113;-78
2021/12/12 12:30:51;;;;;;;8.00;4.00;;;;;;;5.09;79.18;100698.56;8223224;28;20124;-76
2021/12/12 12:35:29;;;;;;;11.02;4.28;;;;;;;4.99;79.77;100701.56;8231926;28;20046;-79
2021/12/12 12:39:31;;;;;;;9.20;4.03;;;;;;;4.89;79.75;100710.06;8233276;28;20037;-81
2021/12/12 12:44:26;;;;;;;7.85;3.80;;;;;;;4.87;80.16;100703.09;8221736;28;20122;-79
2021/12/12 12:48:45;;;;;;;6.68;4.00;;;;;;;4.89;80.07;100695.59;8161040;28;20055;-79
2021/12/12 12:53:38;;;;;;;9.75;4.07;;;;;;;4.84;80.34;100698.88;8234526;28;20517;-80
2021/12/12 12:57:41;;;;;;;12.30;3.77;;;;;;;4.96;80.20;100697.34;8171110;28;20085;-79
2021/12/12 13:02:04;;;;;;;10.90;3.78;;;;;;;4.94;80.50;100690.41;8232362;28;20089;-77
2021/12/12 13:06:11;;;;;;;;;;;;;;;4.83;80.37;100696.34;8204656;28;20097;-79
2021/12/12 13:10:22;;;;;;;6.50;3.13;;;;;;;4.82;80.53;100691.91;8240004;28;19981;-79
2021/12/12 13:14:57;;;;;;;7.37;3.53;;;;;;;4.79;80.30;100690.44;8240039;28;20063;-78
2021/12/12 13:19:13;;;;;;;7.28;3.55;;;;;;;4.79;81.58;100701.34;8227970;28;20045;-78
2021/12/12 13:23:29;;;;;;;8.35;3.22;;;;;;;4.73;81.37;100691.16;8223369;28;20049;-79
2021/12/12 13:32:17;;;;;;;6.32;3.00;;;;;;;4.64;81.88;100698.63;8209233;28;20520;-78
2021/12/12 13:36:43;;;;;;;7.13;3.50;;;;;;;4.59;82.22;100708.41;8201946;28;20070;-78
2021/12/12 13:41:08;;;;;;;6.63;4.85;;;;;;;4.56;82.62;100704.19;8204432;28;20039;-77
2021/12/12 13:45:20;;;;;;;8.95;3.97;;;;;;;4.62;82.93;100708.03;8223685;28;20042;-78
2021/12/12 13:49:28;;;;;;;8.07;3.33;;;;;;;4.57;83.03;100705.88;8220595;28;20046;-79
2021/12/12 13:53:47;;;;;;;7.47;3.28;;;;;;;4.64;82.78;100711.41;8226086;28;20093;-80
2021/12/12 13:58:15;;;;;;;9.25;3.55;;;;;;;4.56;82.86;100709.66;8208283;28;20047;-78
2021/12/12 14:02:17;;;;;;;14.02;3.17;;;;;;;4.56;82.89;100721.41;8213729;28;20094;-79
2021/12/12 14:06:21;;;;;;;6.40;2.73;;;;;;;4.60;82.80;100712.84;8222043;28;20074;-78
2021/12/12 14:10:29;;;;;;;9.63;3.67;;;;;;;4.57;82.99;100711.31;8209153;28;20321;-79
2021/12/12 14:14:29;;;;;;;6.28;3.08;;;;;;;4.49;83.38;100700.50;8222138;28;20057;-78
2021/12/12 14:18:41;;;;;;;9.03;3.03;;;;;;;4.55;84.06;100703.34;8223154;28;20042;-79
2021/12/12 14:22:41;;;;;;;11.75;3.28;;;;;;;4.56;83.19;100704.19;8203141;28;20046;-79
2021/12/12 14:26:47;;;;;;;6.18;3.25;;;;;;;4.63;83.31;100701.53;8217868;28;20038;-79
2021/12/12 14:30:51;;;;;;;7.47;3.40;;;;;;;4.57;82.71;100700.41;8236180;28;20087;-79
2021/12/12 14:34:57;;;;;;;9.57;3.53;;;;;;;4.50;83.52;100704.94;8232740;28;20093;-78
2021/12/12 14:39:00;;;;;;;9.13;3.08;;;;;;;4.48;83.10;100699.66;8237309;28;20053;-78
2021/12/12 14:43:06;;;;;;;8.15;3.33;;;;;;;4.49;83.91;100698.63;8221033;28;20133;-79
2021/12/12 14:47:14;;;;;;;6.97;3.38;;;;;;;4.56;83.37;100698.72;8227927;28;20130;-77
2021/12/12 14:51:22;;;;;;;7.43;3.10;;;;;;;4.47;84.10;100713.50;8217418;28;20058;-78
2021/12/12 14:55:27;;;;;;;8.60;3.60;;;;;;;4.49;83.22;100703.22;8231899;28;20097;-79
2021/12/12 14:59:36;;;;;;;10.93;3.75;;;;;;;4.55;84.38;100716.13;8194936;28;20039;-79
2021/12/12 15:03:45;;;;;;;6.60;3.33;;;;;;;4.51;84.55;100718.38;8197835;28;20137;-78
2021/12/12 15:07:49;;;;;;;8.02;3.20;;;;;;;4.56;84.04;100724.13;8226690;28;20072;-79
2021/12/12 15:11:59;;;;;;;7.80;3.63;;;;;;;4.52;84.38;100724.69;8231313;28;20045;-78
2021/12/12 15:16:02;;;;;;;12.38;3.70;;;;;;;4.45;84.51;100719.13;8197022;28;20057;-79
2021/12/12 15:20:10;;;;;;;7.55;3.72;;;;;;;4.46;84.91;100720.84;8233534;28;20039;-80
2021/12/12 15:24:22;;;;;;;7.97;3.35;;;;;;;4.47;85.35;100722.53;8240182;28;20045;-79
2021/12/12 15:28:29;;;;;;;7.63;3.50;;;;;;;4.51;85.20;100720.28;8226325;28;20463;-80
2021/12/12 15:32:31;;;;;;;10.27;3.92;;;;;;;4.52;85.50;100720.09;8231605;28;20074;-80
2021/12/12 15:36:38;;;;;;;12.38;4.03;;;;;;;4.48;86.56;100723.38;8210775;28;20043;-81
2021/12/12 15:40:42;;;;;;;5.22;3.22;;;;;;;4.53;86.46;100726.41;8226476;28;20042;-80
2021/12/12 15:45:00;;;;;;;9.90;3.88;;;;;;;4.63;86.92;100731.56;8228329;28;20495;-81
2021/12/12 15:49:16;;;;;;;7.20;3.72;;;;;;;4.54;88.38;100717.16;8226017;28;20650;-80
2021/12/12 15:53:20;;;;;;;8.73;3.90;;;;;;;4.62;88.02;100721.69;8225079;28;20050;-81
2021/12/12 15:57:33;;;;;;;12.20;3.22;;;;;;;4.62;87.99;100727.16;8221025;28;20046;-79
2021/12/12 16:01:47;;;;;;;9.40;4.05;;;;;;;4.68;88.08;100742.78;8225013;28;20121;-81
2021/12/12 16:05:52;;;;;;;7.57;4.30;;;;;;;4.69;88.19;100747.19;8214139;28;20404;-81
2021/12/12 16:10:15;;;;;;;7.82;3.80;;;;;;;4.75;87.48;100750.00;8206794;28;20039;-80
2021/12/12 16:14:18;;;;;;;10.07;3.63;;;;;;;4.78;87.96;100760.56;8215428;28;20492;-80
2021/12/12 16:18:28;;;;;;;8.40;3.45;;;;;;;4.73;89.05;100760.28;8212160;28;20522;-80
2021/12/12 16:22:35;;;;;;;10.70;4.30;;;;;;;4.77;89.08;100755.28;8219645;28;20078;-80
2021/12/12 16:26:54;;;;;;;11.20;4.18;;;;;;;4.84;88.23;100755.38;8235537;28;20078;-78
2021/12/12 16:31:11;;;;;;;10.30;3.33;;;;;;;4.80;88.56;100752.19;8235903;28;20085;-80
2021/12/12 16:35:14;;;;;;;8.32;3.95;;;;;;;4.83;89.00;100757.25;8239491;28;20039;-80
2021/12/12 16:39:22;;;;;;;8.82;3.60;;;;;;;4.86;87.90;100750.59;8207239;28;20492;-79
2021/12/12 16:43:26;;;;;;;10.63;4.22;;;;;;;4.86;88.43;100748.69;8221570;28;20047;-80
2021/12/12 16:47:34;;;;;;;12.10;4.72;;;;;;;4.80;90.27;100747.56;8228000;28;20092;-81
2021/12/12 16:51:39;;;;;;;8.30;3.60;;;;;;;4.78;91.54;100748.78;8218826;28;20045;-80
2021/12/12 16:55:43;;;;;;;10.77;5.60;;;;;;;4.84;92.01;100753.50;8205216;28;20038;-80
2021/12/12 16:59:45;;;;;;;10.20;4.15;;;;;;;4.86;90.93;100762.34;8219561;28;20101;-77
2021/12/12 17:03:51;;;;;;;12.20;4.70;;;;;;;4.80;92.50;100771.28;8213820;28;20049;-81
2021/12/12 17:08:03;;;;;;;11.98;4.93;;;;;;;4.61;95.89;100769.13;8201246;28;20291;-80
2021/12/12 17:12:35;;;;;;;11.85;5.22;;;;;;;4.60;95.83;100771.00;8223267;28;20043;-80
2021/12/12 17:16:37;;;;;;;10.95;4.53;;;;;;;4.52;97.69;100771.94;8218817;28;20046;-79
2021/12/12 17:20:43;;;;;;;;;;;;;;;4.48;98.32;100769.78;8229622;28;20062;-80
2021/12/12 17:24:49;;;;;;;12.60;4.90;;;;;;;4.39;98.92;100762.72;8217756;28;19915;-81
2021/12/12 17:28:57;;;;;;;12.13;4.55;;;;;;;4.36;99.76;100755.72;8217605;28;20484;-80
2021/12/12 17:33:14;;;;;;;12.63;5.43;;;;;;;4.35;100.00;100762.25;8209394;28;20475;-79
2021/12/12 17:37:23;;;;;;;11.52;4.47;;;;;;;4.32;100.00;100773.53;8200996;28;20392;-79
2021/12/12 17:41:39;;;;;;;12.70;4.80;;;;;;;4.34;100.00;100775.03;8195818;28;20065;-82
2021/12/12 17:46:25;;;;;;;9.52;5.10;;;;;;;4.37;100.00;100776.53;8223619;28;20062;-81
2021/12/12 17:55:58;;;;;;;12.07;4.88;;;;;;;4.40;100.00;100792.53;8199433;28;20042;-81
2021/12/12 18:01:01;;;;;;;13.13;5.30;;;;;;;4.40;100.00;100787.06;8183537;28;20043;-81
2021/12/12 18:16:08;;;;;;;12.52;5.15;;;;;;;4.37;100.00;100786.59;8198559;28;20054;-81
2021/12/12 18:39:45;;;;;;;15.45;5.47;;;;;;;4.52;100.00;100803.84;8242233;23;20033;-82
2021/12/12 18:49:46;;;;;;;14.73;6.40;;;;;;;4.52;100.00;100812.91;8214405;28;20129;-81
2021/12/12 19:05:31;;;;;;;16.58;6.05;;;;;;;4.67;100.00;100828.44;8132685;29;20055;-82
2021/12/12 19:10:07;;;;;;;15.68;7.00;;;;;;;4.65;100.00;100827.78;8146721;29;20055;-82
2021/12/12 19:14:24;;;;;;;14.25;6.85;;;;;;;4.67;100.00;100822.97;8163035;29;20040;-81
2021/12/12 19:18:38;;;;;;;11.90;6.20;;;;;;;4.66;100.00;100832.19;8162738;29;20069;-82
2021/12/12 19:23:08;;;;;;;19.50;7.50;;;;;;;4.61;100.00;100824.59;8168902;29;20486;-82
2021/12/12 20:01:37;;;;;;;21.10;9.50;;;;;;;4.76;100.00;100830.06;8163654;29;20043;-83
2021/12/12 20:05:51;;;;;;;20.88;8.27;;;;;;;4.80;100.00;100836.84;8039601;29;20044;-83
2021/12/12 20:10:25;;;;;;;19.15;10.05;;;;;;;4.86;100.00;100833.34;8152924;29;20046;-83
2021/12/12 20:14:30;;;;;;;20.98;9.20;;;;;;;4.89;100.00;100834.88;8140275;29;20717;-82
2021/12/12 20:18:33;;;;;;;16.02;9.18;;;;;;;4.97;100.00;100832.06;8149520;29;20079;-83
2021/12/12 20:22:39;;;;;;;16.95;8.60;;;;;;;4.99;100.00;100833.53;8164875;29;20040;-83
2021/12/12 20:27:00;;;;;;;18.25;8.70;;;;;;;4.97;100.00;100832.88;8168207;29;20355;-81
2021/12/12 20:36:57;;;;;;;16.92;8.68;;;;;;;5.01;100.00;100850.59;8162046;29;20043;-84
2021/12/12 20:41:02;;;;;;;21.98;9.18;;;;;;;5.01;100.00;100845.13;8159169;29;20043;-82
2021/12/12 20:45:28;;;;;;;21.63;9.40;;;;;;;5.04;100.00;100849.38;8148600;29;20135;-82
2021/12/12 20:49:37;;;;;;;17.48;9.80;;;;;;;5.10;100.00;100845.03;8167446;29;20036;-82
2021/12/12 20:53:46;;;;;;;22.67;10.82;;;;;;;5.15;100.00;100846.16;8126368;29;20044;-82
2021/12/12 20:57:53;;;;;;;20.52;10.15;;;;;;;5.21;100.00;100839.94;8156522;29;20031;-83
2021/12/12 21:02:00;;;;;;;18.10;9.60;;;;;;;5.19;100.00;100843.91;8159896;29;20043;-83
2021/12/12 21:06:07;;;;;;;17.77;9.55;;;;;;;5.14;100.00;100849.91;8160593;29;20054;-83
2021/12/12 21:10:14;;;;;;;21.63;10.05;;;;;;;5.15;100.00;100848.06;8157886;29;20040;-83
2021/12/12 21:14:29;;;;;;;20.23;9.95;;;;;;;5.16;100.00;100852.47;8160341;29;20054;-82
2021/12/12 21:18:37;;;;;;;24.05;10.95;;;;;;;5.20;100.00;100842.84;8160546;29;20035;-83